createdAt,value
2023-04-01T00:00:16.920Z,983.8
2023-04-01T00:01:18.757Z,983.8
2023-04-01T00:02:20.446Z,983.8
2023-04-01T00:03:21.983Z,983.8
2023-04-01T00:04:23.920Z,983.8
2023-04-01T00:05:24.860Z,983.8
2023-04-01T00:06:25.973Z,983.8
2023-04-01T00:07:30.601Z,983.8
2023-04-01T00:08:28.844Z,983.8
2023-04-01T00:09:30.077Z,983.8
2023-04-01T00:10:30.862Z,983.8
2023-04-01T00:11:31.857Z,983.7
2023-04-01T00:12:32.840Z,983.7
2023-04-01T00:13:33.879Z,983.7
2023-04-01T00:14:34.861Z,983.7
2023-04-01T00:15:35.929Z,983.7
2023-04-01T00:16:38.192Z,983.7
2023-04-01T00:17:39.924Z,983.7
2023-04-01T00:18:40.940Z,983.7
2023-04-01T00:19:41.987Z,983.7
2023-04-01T00:20:43.902Z,983.7
2023-04-01T00:21:44.939Z,983.7
2023-04-01T00:22:45.870Z,983.7
2023-04-01T00:23:46.873Z,983.7
2023-04-01T00:24:47.890Z,983.8
2023-04-01T00:25:49.908Z,983.8
2023-04-01T00:26:50.964Z,983.8
2023-04-01T00:27:51.944Z,983.8
2023-04-01T00:28:52.913Z,983.8
2023-04-01T00:29:53.882Z,983.8
2023-04-01T00:30:54.862Z,983.8
2023-04-01T00:31:56.006Z,983.8
2023-04-01T00:32:56.960Z,983.8
2023-04-01T00:33:57.875Z,983.8
2023-04-01T00:34:58.894Z,983.8
2023-04-01T00:35:59.946Z,983.8
2023-04-01T00:37:00.990Z,983.7
2023-04-01T00:38:01.872Z,983.7
2023-04-01T00:39:02.920Z,983.8
2023-04-01T00:40:03.874Z,983.8
2023-04-01T00:41:04.874Z,983.2
2023-04-01T00:42:05.976Z,983.6
2023-04-01T00:43:06.906Z,983.7
2023-04-01T00:44:07.909Z,983.7
2023-04-01T00:45:08.887Z,983.7
2023-04-01T00:46:09.976Z,983.7
2023-04-01T00:47:11.320Z,983.7
2023-04-01T00:48:13.104Z,983.7
2023-04-01T00:49:13.889Z,983.7
2023-04-01T00:50:14.928Z,983.7
2023-04-01T00:51:15.874Z,983.7
2023-04-01T00:52:16.966Z,983.7
2023-04-01T00:53:17.891Z,983.7
2023-04-01T00:54:18.867Z,983.7
2023-04-01T00:55:19.894Z,983.7
2023-04-01T00:56:21.407Z,983.8
2023-04-01T00:57:23.027Z,983.7
2023-04-01T00:58:23.948Z,983.8
2023-04-01T00:59:24.948Z,983.8
2023-04-01T01:00:25.916Z,983.8
2023-04-01T01:01:26.967Z,983.8
2023-04-01T01:02:28.615Z,983.8
2023-04-01T01:03:30.049Z,983.9
2023-04-01T01:04:30.919Z,983.8
2023-04-01T01:05:34.255Z,983.8
2023-04-01T01:06:32.946Z,983.8
2023-04-01T01:07:34.246Z,983.8
2023-04-01T01:08:36.006Z,983.8
2023-04-01T01:09:36.927Z,983.8
2023-04-01T01:10:37.926Z,983.8
2023-04-01T01:11:43.169Z,983.7
2023-04-01T01:12:39.990Z,983.7
2023-04-01T01:13:40.907Z,983.7
2023-04-01T01:14:41.948Z,983.7
2023-04-01T01:15:42.925Z,983.7
2023-04-01T01:16:43.962Z,983.7
2023-04-01T01:17:45.033Z,983.7
2023-04-01T01:18:47.005Z,983.1
2023-04-01T01:19:48.963Z,983.5
2023-04-01T01:20:49.920Z,983.6
2023-04-01T01:21:50.954Z,983.6
2023-04-01T01:22:52.026Z,983.6
2023-04-01T01:23:52.919Z,983.7
2023-04-01T01:24:53.949Z,983.7
2023-04-01T01:25:54.927Z,983.7
2023-04-01T01:26:55.927Z,983.7
2023-04-01T01:27:57.027Z,983.7
2023-04-01T01:28:57.897Z,983.7
2023-04-01T01:29:58.905Z,983.7
2023-04-01T01:31:00.001Z,983.7
2023-04-01T01:32:00.927Z,983.7
2023-04-01T01:33:01.993Z,983.7
2023-04-01T01:34:02.889Z,983.7
2023-04-01T01:35:03.932Z,982.8
2023-04-01T01:36:04.996Z,983.5
2023-04-01T01:37:05.939Z,983.7
2023-04-01T01:38:07.037Z,983.7
2023-04-01T01:39:07.926Z,983.7
2023-04-01T01:40:08.985Z,983.7
2023-04-01T01:41:09.945Z,983.7
2023-04-01T01:42:10.958Z,983.7
2023-04-01T01:43:11.985Z,983.7
2023-04-01T01:44:12.935Z,983.7
2023-04-01T01:45:13.973Z,983.7
2023-04-01T01:46:14.916Z,983.7
2023-04-01T01:47:15.924Z,983.7
2023-04-01T01:48:17.269Z,983.7
2023-04-01T01:49:18.998Z,983.7
2023-04-01T01:50:20.969Z,983.7
2023-04-01T01:51:21.948Z,983.6
2023-04-01T01:52:22.971Z,983.6
2023-04-01T01:53:24.023Z,983.6
2023-04-01T01:54:24.942Z,983.6
2023-04-01T01:55:25.964Z,983.6
2023-04-01T01:56:26.966Z,983.6
2023-04-01T01:57:27.926Z,983.5
2023-04-01T01:58:28.990Z,983.6
2023-04-01T01:59:29.946Z,983.5
2023-04-01T02:00:30.980Z,983.5
2023-04-01T02:01:31.956Z,983.6
2023-04-01T02:02:32.966Z,983.6
2023-04-01T02:03:34.785Z,983.5
2023-04-01T02:04:35.984Z,983.5
2023-04-01T02:05:36.946Z,983.5
2023-04-01T02:06:38.012Z,983.5
2023-04-01T02:07:38.973Z,983.5
2023-04-01T02:08:39.984Z,983.5
2023-04-01T02:09:40.944Z,983.5
2023-04-01T02:10:41.903Z,983.5
2023-04-01T02:11:42.866Z,983.5
2023-04-01T02:12:43.956Z,983.5
2023-04-01T02:13:44.984Z,983.5
2023-04-01T02:14:45.960Z,983.5
2023-04-01T02:15:47.057Z,983.5
2023-04-01T02:16:47.943Z,983.5
2023-04-01T02:17:49.034Z,983.5
2023-04-01T02:18:50.009Z,983.5
2023-04-01T02:19:50.925Z,983.5
2023-04-01T02:20:51.903Z,983
2023-04-01T02:21:52.993Z,983.4
2023-04-01T02:22:53.992Z,983.4
2023-04-01T02:23:55.070Z,983.4
2023-04-01T02:24:55.989Z,983.1
2023-04-01T02:25:56.904Z,983.4
2023-04-01T02:26:58.063Z,983.4
2023-04-01T02:27:58.942Z,983.4
2023-04-01T02:29:00.045Z,983.1
2023-04-01T02:30:00.983Z,983.3
2023-04-01T02:31:02.275Z,983.4
2023-04-01T02:32:03.904Z,983.4
2023-04-01T02:33:05.052Z,983.4
2023-04-01T02:34:06.051Z,983.4
2023-04-01T02:35:07.961Z,983.4
2023-04-01T02:36:09.008Z,983.5
2023-04-01T02:37:09.968Z,983.4
2023-04-01T02:38:10.953Z,983.4
2023-04-01T02:39:11.982Z,983.4
2023-04-01T02:40:12.920Z,983.5
2023-04-01T02:41:13.960Z,983.5
2023-04-01T02:42:14.940Z,983.4
2023-04-01T02:43:15.949Z,983.5
2023-04-01T02:44:16.994Z,983.4
2023-04-01T02:45:17.986Z,983.4
2023-04-01T02:46:18.974Z,983.4
2023-04-01T02:47:19.983Z,983.4
2023-04-01T02:48:21.083Z,983.5
2023-04-01T02:49:22.025Z,983.4
2023-04-01T02:50:22.964Z,983.5
2023-04-01T02:51:23.978Z,983.4
2023-04-01T02:52:24.924Z,983.5
2023-04-01T02:53:25.932Z,983.5
2023-04-01T02:54:27.048Z,983.6
2023-04-01T02:55:27.945Z,983.5
2023-04-01T02:56:28.972Z,983.5
2023-04-01T02:57:29.999Z,983.6
2023-04-01T02:58:30.967Z,983.6
2023-04-01T02:59:32.028Z,983.6
2023-04-01T03:00:32.989Z,983.6
2023-04-01T03:01:34.075Z,983.6
2023-04-01T03:02:35.099Z,983.7
2023-04-01T03:03:36.125Z,983.6
2023-04-01T03:04:37.635Z,983.6
2023-04-01T03:05:38.976Z,983.6
2023-04-01T03:06:39.987Z,983.6
2023-04-01T03:07:41.211Z,983.6
2023-04-01T03:08:41.974Z,983.7
2023-04-01T03:09:43.051Z,983.7
2023-04-01T03:10:43.947Z,983.6
2023-04-01T03:11:44.989Z,983.6
2023-04-01T03:12:45.955Z,983.6
2023-04-01T03:13:46.987Z,983.6
2023-04-01T03:14:48.023Z,983.6
2023-04-01T03:15:48.967Z,983.6
2023-04-01T03:16:50.043Z,983.7
2023-04-01T03:17:51.228Z,983.7
2023-04-01T03:18:53.028Z,983.6
2023-04-01T03:19:54.059Z,983.6
2023-04-01T03:20:55.027Z,983.7
2023-04-01T03:21:55.947Z,983.7
2023-04-01T03:22:56.998Z,983.7
2023-04-01T03:23:58.146Z,983.7
2023-04-01T03:25:00.048Z,983.7
2023-04-01T03:26:00.949Z,983.7
2023-04-01T03:27:02.213Z,983.7
2023-04-01T03:28:02.984Z,983.7
2023-04-01T03:29:03.964Z,983.7
2023-04-01T03:30:05.071Z,983.7
2023-04-01T03:31:06.003Z,983.7
2023-04-01T03:32:06.943Z,983.7
2023-04-01T03:33:08.071Z,983.7
2023-04-01T03:34:09.002Z,983.7
2023-04-01T03:35:10.045Z,983.7
2023-04-01T03:36:10.986Z,983.7
2023-04-01T03:37:12.124Z,983.8
2023-04-01T03:38:12.988Z,983.7
2023-04-01T03:39:13.942Z,983.8
2023-04-01T03:40:15.143Z,983.8
2023-04-01T03:41:15.987Z,983.8
2023-04-01T03:42:16.983Z,983.8
2023-04-01T03:43:17.968Z,983.8
2023-04-01T03:44:19.015Z,983.8
2023-04-01T03:45:19.994Z,983.8
2023-04-01T03:46:21.019Z,983.8
2023-04-01T03:47:21.991Z,983.8
2023-04-01T03:48:22.961Z,983.8
2023-04-01T03:49:23.985Z,983.8
2023-04-01T03:50:25.026Z,983.8
2023-04-01T03:51:25.992Z,983.8
2023-04-01T03:52:26.962Z,983.8
2023-04-01T03:53:27.996Z,983.7
2023-04-01T03:54:28.963Z,983.8
2023-04-01T03:55:30.263Z,983.8
2023-04-01T03:56:30.992Z,983.8
2023-04-01T03:57:32.062Z,983.9
2023-04-01T03:58:33.372Z,983.8
2023-04-01T03:59:35.027Z,983.8
2023-04-01T04:00:36.125Z,983.9
2023-04-01T04:01:37.050Z,983.8
2023-04-01T04:02:38.057Z,983.9
2023-04-01T04:03:39.098Z,983.9
2023-04-01T04:04:40.035Z,983.8
2023-04-01T04:05:41.395Z,983.9
2023-04-01T04:06:43.106Z,983.9
2023-04-01T04:07:45.029Z,983.8
2023-04-01T04:08:45.999Z,983.9
2023-04-01T04:09:47.574Z,983.9
2023-04-01T04:10:49.046Z,983.9
2023-04-01T04:11:50.050Z,983.9
2023-04-01T04:12:51.066Z,983.9
2023-04-01T04:13:51.974Z,983.9
2023-04-01T04:14:53.025Z,984.1
2023-04-01T04:15:54.330Z,984
2023-04-01T04:16:55.013Z,984
2023-04-01T04:17:56.196Z,984
2023-04-01T04:18:56.985Z,984
2023-04-01T04:19:58.015Z,984
2023-04-01T04:20:59.537Z,983.9
2023-04-01T04:22:01.054Z,984
2023-04-01T04:23:03.074Z,983.9
2023-04-01T04:24:04.060Z,984
2023-04-01T04:25:05.186Z,984
2023-04-01T04:26:06.756Z,984
2023-04-01T04:27:08.015Z,984
2023-04-01T04:28:08.985Z,983.9
2023-04-01T04:29:10.806Z,983.9
2023-04-01T04:30:12.066Z,983.9
2023-04-01T04:31:13.188Z,984
2023-04-01T04:32:14.052Z,984
2023-04-01T04:33:15.264Z,984
2023-04-01T04:34:16.368Z,984
2023-04-01T04:35:18.127Z,984
2023-04-01T04:36:19.196Z,984
2023-04-01T04:37:19.990Z,983.9
2023-04-01T04:38:21.031Z,984
2023-04-01T04:39:22.731Z,984
2023-04-01T04:40:24.054Z,984
2023-04-01T04:41:25.083Z,984
2023-04-01T04:42:26.007Z,984
2023-04-01T04:43:27.390Z,984
2023-04-01T04:44:29.092Z,984
2023-04-01T04:45:32.306Z,984
2023-04-01T04:46:33.173Z,983.5
2023-04-01T04:47:35.084Z,983.9
2023-04-01T04:48:36.054Z,984
2023-04-01T04:49:38.025Z,984
2023-04-01T04:50:39.084Z,984.1
2023-04-01T04:51:41.074Z,984
2023-04-01T04:52:42.099Z,984
2023-04-01T04:53:43.544Z,984.1
2023-04-01T04:54:45.071Z,984.1
2023-04-01T04:55:46.046Z,984.1
2023-04-01T04:56:47.108Z,984
2023-04-01T04:57:48.067Z,984
2023-04-01T04:58:49.063Z,984.1
2023-04-01T04:59:50.029Z,984.1
2023-04-01T05:00:51.265Z,984
2023-04-01T05:01:53.458Z,984
2023-04-01T05:02:55.119Z,984.1
2023-04-01T05:03:56.053Z,984.1
2023-04-01T05:04:57.194Z,984.1
2023-04-01T05:05:58.904Z,984.1
2023-04-01T05:07:00.549Z,984.1
2023-04-01T05:08:02.205Z,984.1
2023-04-01T05:09:03.044Z,984.1
2023-04-01T05:10:04.067Z,984.1
2023-04-01T05:11:05.042Z,984.1
2023-04-01T05:12:06.083Z,984.1
2023-04-01T05:13:07.043Z,983.5
2023-04-01T05:14:08.005Z,984
2023-04-01T05:15:09.061Z,984.1
2023-04-01T05:16:10.092Z,984.1
2023-04-01T05:17:11.200Z,984.1
2023-04-01T05:18:12.103Z,984.1
2023-04-01T05:19:14.722Z,984.1
2023-04-01T05:20:16.063Z,984.1
2023-04-01T05:21:18.131Z,983.8
2023-04-01T05:22:20.552Z,984
2023-04-01T05:23:22.045Z,984
2023-04-01T05:24:23.092Z,984.1
2023-04-01T05:25:24.066Z,984.1
2023-04-01T05:26:25.631Z,984.1
2023-04-01T05:27:27.064Z,984.1
2023-04-01T05:28:28.108Z,984.1
2023-04-01T05:29:29.118Z,984.1
2023-04-01T05:30:31.187Z,984.2
2023-04-01T05:31:32.085Z,984.2
2023-04-01T05:32:33.165Z,984.1
2023-04-01T05:33:34.043Z,984.2
2023-04-01T05:34:35.084Z,984.2
2023-04-01T05:35:36.253Z,984.2
2023-04-01T05:36:37.070Z,984.2
2023-04-01T05:37:38.563Z,984.2
2023-04-01T05:38:41.331Z,984.2
2023-04-01T05:39:43.083Z,984.2
2023-04-01T05:40:44.092Z,984.2
2023-04-01T05:41:45.084Z,984.2
2023-04-01T05:42:46.678Z,984.2
2023-04-01T05:43:48.861Z,984.2
2023-04-01T05:44:51.127Z,984.1
2023-04-01T05:45:53.078Z,984.2
2023-04-01T05:46:54.187Z,984.2
2023-04-01T05:47:55.733Z,984.1
2023-04-01T05:48:57.207Z,984.2
2023-04-01T05:49:59.527Z,984.2
2023-04-01T05:51:01.172Z,984.2
2023-04-01T05:52:03.165Z,984.2
2023-04-01T05:53:05.106Z,984.2
2023-04-01T05:54:06.586Z,983.5
2023-04-01T05:55:08.086Z,984
2023-04-01T05:56:09.211Z,984.2
2023-04-01T05:57:11.177Z,984.2
2023-04-01T05:58:14.029Z,984.2
2023-04-01T05:59:15.508Z,984.2
2023-04-01T06:00:17.217Z,984.2
2023-04-01T06:01:18.119Z,984.2
2023-04-01T06:02:20.528Z,984.2
2023-04-01T06:03:22.492Z,984.2
2023-04-01T06:04:24.676Z,983.6
2023-04-01T06:05:26.338Z,984.1
2023-04-01T06:06:28.471Z,984.2
2023-04-01T06:07:30.074Z,984.2
2023-04-01T06:08:31.282Z,984.3
2023-04-01T06:09:33.261Z,984.3
2023-04-01T06:10:35.362Z,984.3
2023-04-01T06:11:37.296Z,984.2
2023-04-01T06:12:39.351Z,984.3
2023-04-01T06:13:41.257Z,984.3
2023-04-01T06:14:43.112Z,984.1
2023-04-01T06:15:44.134Z,984.3
2023-04-01T06:16:45.322Z,984.3
2023-04-01T06:17:47.393Z,984.4
2023-04-01T06:18:49.290Z,984.4
2023-04-01T06:19:51.162Z,984.4
2023-04-01T06:20:53.253Z,984.4
2023-04-01T06:21:54.165Z,984.4
2023-04-01T06:22:55.062Z,984.4
2023-04-01T06:23:57.266Z,984.4
2023-04-01T06:24:58.187Z,984.4
2023-04-01T06:26:00.109Z,984.4
2023-04-01T06:27:01.091Z,983.8
2023-04-01T06:28:03.114Z,984.3
2023-04-01T06:29:04.148Z,984.4
2023-04-01T06:30:05.783Z,984.4
2023-04-01T06:31:07.477Z,984.5
2023-04-01T06:32:09.156Z,984.5
2023-04-01T06:33:10.163Z,984.5
2023-04-01T06:34:12.105Z,984.5
2023-04-01T06:35:13.092Z,984.5
2023-04-01T06:36:14.411Z,984.5
2023-04-01T06:37:15.212Z,984.5
2023-04-01T06:38:16.775Z,984.5
2023-04-01T06:39:18.170Z,984.5
2023-04-01T06:40:19.066Z,984.5
2023-04-01T06:41:20.050Z,984.4
2023-04-01T06:42:21.168Z,984.5
2023-04-01T06:43:22.027Z,984.5
2023-04-01T06:44:23.147Z,984.4
2023-04-01T06:45:25.229Z,984.4
2023-04-01T06:46:27.174Z,984.5
2023-04-01T06:47:28.139Z,984.4
2023-04-01T06:48:29.133Z,984.5
2023-04-01T06:49:30.226Z,984.5
2023-04-01T06:50:32.282Z,984.5
2023-04-01T06:51:34.064Z,984.7
2023-04-01T06:52:35.046Z,984.5
2023-04-01T06:53:37.162Z,984.5
2023-04-01T06:54:39.473Z,984.5
2023-04-01T06:55:41.554Z,984.5
2023-04-01T06:56:43.408Z,984.5
2023-04-01T06:57:45.220Z,984.5
2023-04-01T06:58:46.095Z,984.4
2023-04-01T06:59:47.130Z,984.5
2023-04-01T07:00:48.353Z,984.5
2023-04-01T07:01:49.327Z,984.5
2023-04-01T07:02:50.099Z,984.5
2023-04-01T07:03:52.147Z,984.5
2023-04-01T07:04:53.506Z,984.5
2023-04-01T07:05:55.385Z,984.5
2023-04-01T07:06:57.350Z,984.5
2023-04-01T07:07:59.122Z,984.5
2023-04-01T07:09:00.067Z,984.6
2023-04-01T07:10:02.157Z,984.5
2023-04-01T07:11:03.160Z,984.5
2023-04-01T07:12:04.165Z,984.6
2023-04-01T07:13:05.206Z,984.5
2023-04-01T07:14:07.183Z,984.5
2023-04-01T07:15:09.504Z,984.5
2023-04-01T07:16:11.128Z,984.6
2023-04-01T07:17:13.281Z,984.6
2023-04-01T07:18:14.103Z,984.6
2023-04-01T07:19:15.888Z,984.5
2023-04-01T07:20:17.120Z,984.5
2023-04-01T07:21:18.121Z,984.6
2023-04-01T07:22:19.132Z,984.6
2023-04-01T07:23:20.056Z,984.6
2023-04-01T07:24:21.124Z,984.7
2023-04-01T07:25:22.160Z,984.6
2023-04-01T07:26:24.943Z,984.6
2023-04-01T07:27:26.142Z,984.6
2023-04-01T07:28:27.632Z,984.6
2023-04-01T07:29:29.061Z,984.6
2023-04-01T07:30:30.609Z,984.6
2023-04-01T07:31:32.370Z,984.6
2023-04-01T07:32:36.031Z,984.6
2023-04-01T07:33:36.079Z,984.6
2023-04-01T07:34:37.465Z,984.7
2023-04-01T07:35:39.999Z,984.6
2023-04-01T07:36:41.127Z,984.6
2023-04-01T07:37:42.143Z,984.6
2023-04-01T07:38:43.467Z,984.6
2023-04-01T07:39:45.109Z,984.7
2023-04-01T07:40:46.163Z,984.7
2023-04-01T07:41:47.051Z,984.7
2023-04-01T07:42:48.314Z,984.7
2023-04-01T07:43:49.146Z,984.7
2023-04-01T07:44:50.061Z,984.7
2023-04-01T07:45:51.206Z,984.7
2023-04-01T07:46:52.080Z,984.7
2023-04-01T07:47:53.117Z,984.7
2023-04-01T07:48:54.124Z,984.7
2023-04-01T07:49:55.209Z,984.7
2023-04-01T07:50:56.119Z,984.7
2023-04-01T07:51:57.126Z,984.8
2023-04-01T07:52:58.086Z,984.8
2023-04-01T07:53:59.087Z,984.7
2023-04-01T07:55:00.167Z,984.8
2023-04-01T07:56:01.147Z,984.8
2023-04-01T07:57:02.191Z,984.7
2023-04-01T07:58:03.256Z,984.8
2023-04-01T07:59:05.133Z,984.8
2023-04-01T08:00:06.150Z,984.8
2023-04-01T08:01:07.300Z,984.8
2023-04-01T08:02:08.216Z,984.8
2023-04-01T08:03:09.294Z,984.8
2023-04-01T08:04:10.281Z,984.9
2023-04-01T08:05:11.120Z,984.8
2023-04-01T08:06:12.271Z,984.9
2023-04-01T08:07:13.990Z,984.8
2023-04-01T08:08:15.100Z,984.9
2023-04-01T08:09:16.135Z,984.8
2023-04-01T08:10:17.437Z,984.9
2023-04-01T08:11:20.538Z,984.9
2023-04-01T08:12:22.370Z,984.9
2023-04-01T08:13:23.194Z,984.9
2023-04-01T08:14:24.131Z,984.9
2023-04-01T08:15:25.118Z,984.9
2023-04-01T08:16:26.514Z,985
2023-04-01T08:17:28.316Z,984.9
2023-04-01T08:18:30.301Z,985
2023-04-01T08:19:32.332Z,985
2023-04-01T08:20:34.123Z,985
2023-04-01T08:21:35.202Z,984.9
2023-04-01T08:22:37.175Z,984.9
2023-04-01T08:23:39.333Z,984.9
2023-04-01T08:24:47.482Z,984.9
2023-04-01T08:25:43.120Z,985
2023-04-01T08:26:44.164Z,984.9
2023-04-01T08:27:45.101Z,985
2023-04-01T08:28:46.183Z,984.9
2023-04-01T08:29:47.174Z,984.9
2023-04-01T08:30:48.152Z,985
2023-04-01T08:31:49.171Z,985
2023-04-01T08:32:50.383Z,984.9
2023-04-01T08:33:51.163Z,985
2023-04-01T08:34:52.103Z,985
2023-04-01T08:35:53.155Z,985
2023-04-01T08:36:54.483Z,985
2023-04-01T08:37:56.102Z,985.1
2023-04-01T08:38:58.299Z,985
2023-04-01T08:40:00.179Z,985
2023-04-01T08:41:01.119Z,985
2023-04-01T08:42:02.268Z,985
2023-04-01T08:43:09.198Z,985
2023-04-01T08:44:10.197Z,985.1
2023-04-01T08:45:14.361Z,985
2023-04-01T08:46:14.246Z,985
2023-04-01T08:47:16.319Z,985.1
2023-04-01T08:48:18.393Z,985.1
2023-04-01T08:49:20.403Z,985
2023-04-01T08:50:22.173Z,985
2023-04-01T08:51:23.193Z,985
2023-04-01T08:52:25.222Z,985
2023-04-01T08:53:26.503Z,984.8
2023-04-01T08:54:28.101Z,985
2023-04-01T08:55:29.127Z,985
2023-04-01T08:56:30.261Z,985.1
2023-04-01T08:57:31.275Z,985
2023-04-01T08:58:32.119Z,985.1
2023-04-01T08:59:33.192Z,985.1
2023-04-01T09:00:34.193Z,985
2023-04-01T09:01:36.309Z,985.1
2023-04-01T09:02:38.438Z,985.1
2023-04-01T09:03:40.565Z,985.1
2023-04-01T09:04:42.109Z,985.1
2023-04-01T09:05:43.170Z,985.1
2023-04-01T09:06:44.153Z,985.1
2023-04-01T09:07:45.188Z,985.1
2023-04-01T09:08:46.203Z,985.1
2023-04-01T09:09:47.131Z,985.1
2023-04-01T09:10:48.349Z,985.1
2023-04-01T09:11:50.919Z,985.1
2023-04-01T09:12:51.964Z,985.1
2023-04-01T09:13:53.315Z,985.1
2023-04-01T09:14:55.304Z,985.1
2023-04-01T09:15:57.330Z,985.2
2023-04-01T09:16:58.207Z,985.1
2023-04-01T09:17:59.155Z,985.1
2023-04-01T09:19:00.304Z,985.2
2023-04-01T09:20:03.149Z,985.2
2023-04-01T09:21:05.707Z,985.1
2023-04-01T09:22:07.261Z,984.6
2023-04-01T09:23:09.226Z,985
2023-04-01T09:24:11.701Z,985.1
2023-04-01T09:25:13.189Z,985.2
2023-04-01T09:26:14.091Z,985.2
2023-04-01T09:27:15.132Z,985.2
2023-04-01T09:28:16.725Z,985.2
2023-04-01T09:29:18.277Z,985.2
2023-04-01T09:30:19.344Z,985.2
2023-04-01T09:31:21.500Z,985.2
2023-04-01T09:32:24.004Z,985.3
2023-04-01T09:33:25.158Z,985.2
2023-04-01T09:34:26.301Z,985.3
2023-04-01T09:35:28.131Z,985.3
2023-04-01T09:36:30.409Z,985.1
2023-04-01T09:37:32.267Z,985.2
2023-04-01T09:38:34.189Z,985.2
2023-04-01T09:39:35.274Z,985.2
2023-04-01T09:40:36.389Z,985.2
2023-04-01T09:41:37.190Z,985.2
2023-04-01T09:42:38.201Z,985.2
2023-04-01T09:43:39.169Z,985.2
2023-04-01T09:44:40.697Z,985.2
2023-04-01T09:45:42.230Z,985.3
2023-04-01T09:46:43.345Z,985.2
2023-04-01T09:47:44.282Z,985.2
2023-04-01T09:48:45.260Z,985.3
2023-04-01T09:49:47.292Z,985.3
2023-04-01T09:50:48.144Z,985.3
2023-04-01T09:51:49.184Z,985.1
2023-04-01T09:52:50.225Z,985.2
2023-04-01T09:53:51.434Z,985.3
2023-04-01T09:54:53.271Z,985.3
2023-04-01T09:55:54.868Z,985.1
2023-04-01T09:56:56.820Z,985.3
2023-04-01T09:57:58.235Z,985.3
2023-04-01T09:59:00.235Z,985.4
2023-04-01T10:00:01.243Z,985.3
2023-04-01T10:01:03.470Z,985.4
2023-04-01T10:02:05.308Z,985.4
2023-04-01T10:03:07.259Z,985.4
2023-04-01T10:04:08.232Z,985.4
2023-04-01T10:05:10.251Z,985.4
2023-04-01T10:06:11.320Z,985.4
2023-04-01T10:07:13.290Z,985.3
2023-04-01T10:08:15.197Z,985.4
2023-04-01T10:09:16.243Z,985.4
2023-04-01T10:10:17.220Z,985.4
2023-04-01T10:11:18.249Z,985.5
2023-04-01T10:12:19.247Z,985.4
2023-04-01T10:13:20.436Z,985.5
2023-04-01T10:14:22.241Z,985.5
2023-04-01T10:15:23.802Z,985.5
2023-04-01T10:16:25.775Z,985.5
2023-04-01T10:17:27.281Z,985.5
2023-04-01T10:18:28.199Z,985.4
2023-04-01T10:19:29.177Z,985.4
2023-04-01T10:20:30.663Z,985.4
2023-04-01T10:21:32.188Z,985.4
2023-04-01T10:22:33.204Z,985.5
2023-04-01T10:23:34.182Z,985.5
2023-04-01T10:24:35.207Z,985.5
2023-04-01T10:25:36.226Z,985.5
2023-04-01T10:26:37.352Z,985.5
2023-04-01T10:27:39.220Z,985.5
2023-04-01T10:28:40.187Z,985.5
2023-04-01T10:29:41.204Z,985.5
2023-04-01T10:30:42.344Z,985.6
2023-04-01T10:31:43.234Z,985.5
2023-04-01T10:32:44.789Z,985.6
2023-04-01T10:33:45.204Z,985.7
2023-04-01T10:34:46.243Z,985.6
2023-04-01T10:35:47.240Z,985.7
2023-04-01T10:36:48.445Z,985.1
2023-04-01T10:37:49.196Z,985.5
2023-04-01T10:38:50.157Z,985.6
2023-04-01T10:39:51.203Z,985.6
2023-04-01T10:40:52.261Z,985.6
2023-04-01T10:41:53.787Z,985.6
2023-04-01T10:42:55.185Z,985.7
2023-04-01T10:43:56.171Z,985.7
2023-04-01T10:44:57.198Z,985.7
2023-04-01T10:45:58.555Z,985.7
2023-04-01T10:47:00.207Z,985.7
2023-04-01T10:48:01.261Z,985.7
2023-04-01T10:49:02.260Z,985.6
2023-04-01T10:50:03.236Z,985.7
2023-04-01T10:51:04.324Z,985.7
2023-04-01T10:52:05.174Z,985.7
2023-04-01T10:53:07.298Z,985.7
2023-04-01T10:54:07.372Z,985.7
2023-04-01T10:55:09.267Z,985.7
2023-04-01T10:56:11.303Z,985.7
2023-04-01T10:57:12.253Z,985.7
2023-04-01T10:58:14.386Z,985.7
2023-04-01T10:59:16.281Z,985.7
2023-04-01T11:00:21.070Z,985.6
2023-04-01T11:01:22.296Z,985.6
2023-04-01T11:02:23.311Z,985.6
2023-04-01T11:03:24.339Z,985.6
2023-04-01T11:04:26.172Z,985.6
2023-04-01T11:05:27.266Z,985.6
2023-04-01T11:06:28.254Z,985.6
2023-04-01T11:07:29.247Z,985.6
2023-04-01T11:08:30.501Z,985.7
2023-04-01T11:09:32.247Z,985.6
2023-04-01T11:10:33.221Z,985.6
2023-04-01T11:11:34.267Z,985.7
2023-04-01T11:12:35.264Z,985.7
2023-04-01T11:13:36.399Z,985.7
2023-04-01T11:14:38.203Z,985.7
2023-04-01T11:15:39.366Z,985.7
2023-04-01T11:16:41.542Z,985.8
2023-04-01T11:17:42.666Z,985.7
2023-04-01T11:18:44.286Z,985.7
2023-04-01T11:19:45.364Z,985.7
2023-04-01T11:20:46.222Z,985.7
2023-04-01T11:21:47.353Z,985.7
2023-04-01T11:22:49.175Z,985.7
2023-04-01T11:24:02.132Z,985.7
2023-04-01T11:24:51.223Z,985.7
2023-04-01T11:25:53.144Z,985.7
2023-04-01T11:26:54.921Z,985.8
2023-04-01T11:27:56.462Z,985.8
2023-04-01T11:28:58.182Z,985.8
2023-04-01T11:30:00.417Z,985.9
2023-04-01T11:31:00.495Z,985.9
2023-04-01T11:32:02.436Z,985.9
2023-04-01T11:33:04.916Z,986
2023-04-01T11:34:06.661Z,985.9
2023-04-01T11:35:08.250Z,985.9
2023-04-01T11:36:09.261Z,986
2023-04-01T11:37:10.365Z,986
2023-04-01T11:38:12.202Z,986
2023-04-01T11:39:14.267Z,986
2023-04-01T11:40:15.243Z,986
2023-04-01T11:41:16.523Z,986
2023-04-01T11:42:18.634Z,986
2023-04-01T11:43:30.323Z,986
2023-04-01T11:44:21.271Z,986
2023-04-01T11:45:22.354Z,986
2023-04-01T11:46:24.491Z,986
2023-04-01T11:47:27.347Z,986.1
2023-04-01T11:48:28.193Z,986
2023-04-01T11:49:29.489Z,986
2023-04-01T11:50:30.713Z,986
2023-04-01T11:51:32.782Z,986
2023-04-01T11:52:34.753Z,986
2023-04-01T11:53:36.300Z,986.1
2023-04-01T11:54:38.275Z,986
2023-04-01T11:55:39.219Z,986
2023-04-01T11:56:40.233Z,986
2023-04-01T11:57:42.298Z,986
2023-04-01T11:58:43.214Z,986.1
2023-04-01T11:59:44.312Z,986
2023-04-01T12:00:46.323Z,986
2023-04-01T12:01:47.271Z,986.1
2023-04-01T12:02:48.562Z,985.9
2023-04-01T12:03:55.710Z,986.1
2023-04-01T12:04:57.345Z,986.1
2023-04-01T12:05:58.513Z,986.2
2023-04-01T12:07:00.483Z,986.2
2023-04-01T12:08:02.378Z,986.2
2023-04-01T12:09:04.727Z,986.2
2023-04-01T12:10:06.483Z,986.2
2023-04-01T12:11:08.624Z,986.2
2023-04-01T12:12:10.358Z,986.2
2023-04-01T12:13:12.284Z,986.2
2023-04-01T12:14:13.327Z,986.2
2023-04-01T12:15:15.307Z,986.2
2023-04-01T12:16:16.337Z,986.1
2023-04-01T12:17:18.314Z,986.2
2023-04-01T12:18:19.966Z,986.1
2023-04-01T12:19:21.443Z,986.1
2023-04-01T12:20:23.579Z,986.1
2023-04-01T12:21:26.456Z,986.2
2023-04-01T12:22:27.715Z,986.1
2023-04-01T12:23:29.373Z,986.2
2023-04-01T12:24:30.310Z,986.2
2023-04-01T12:25:31.542Z,986.1
2023-04-01T12:26:32.290Z,986.1
2023-04-01T12:27:33.309Z,986.1
2023-04-01T12:28:34.582Z,986.1
2023-04-01T12:29:36.322Z,986.1
2023-04-01T12:30:37.656Z,986.1
2023-04-01T12:31:39.296Z,986.1
2023-04-01T12:32:40.288Z,986.1
2023-04-01T12:33:41.363Z,986.1
2023-04-01T12:34:42.240Z,986.1
2023-04-01T12:35:43.294Z,986.1
2023-04-01T12:36:44.335Z,986.1
2023-04-01T12:37:45.284Z,986.2
2023-04-01T12:38:46.806Z,986.2
2023-04-01T12:39:48.310Z,986.2
2023-04-01T12:40:49.280Z,986.2
2023-04-01T12:41:50.267Z,986.2
2023-04-01T12:42:51.207Z,986.1
2023-04-01T12:43:52.308Z,986.1
2023-04-01T12:44:53.508Z,986.2
2023-04-01T12:45:55.299Z,986.1
2023-04-01T12:46:56.335Z,986.1
2023-04-01T12:47:57.353Z,986.1
2023-04-01T12:48:58.386Z,986.1
2023-04-01T12:50:00.314Z,986.1
2023-04-01T12:51:01.256Z,986.1
2023-04-01T12:52:02.659Z,986.1
2023-04-01T12:53:04.404Z,986.1
2023-04-01T12:54:06.938Z,986.1
2023-04-01T12:55:08.845Z,986.2
2023-04-01T12:56:11.328Z,986.1
2023-04-01T12:57:13.426Z,986.1
2023-04-01T12:58:14.404Z,986.2
2023-04-01T12:59:16.571Z,986.2
2023-04-01T13:00:18.280Z,986.2
2023-04-01T13:01:19.282Z,986.2
2023-04-01T13:02:20.604Z,986.2
2023-04-01T13:03:22.376Z,986.3
2023-04-01T13:04:23.285Z,986.2
2023-04-01T13:05:25.986Z,986.2
2023-04-01T13:06:27.329Z,986.3
2023-04-01T13:07:28.377Z,986.2
2023-04-01T13:08:30.546Z,986.3
2023-04-01T13:09:32.325Z,986.3
2023-04-01T13:10:34.602Z,986.4
2023-04-01T13:11:35.344Z,986.3
2023-04-01T13:12:36.265Z,986.3
2023-04-01T13:13:37.405Z,986.3
2023-04-01T13:14:38.252Z,986.3
2023-04-01T13:15:39.605Z,986.3